Time;durP1;ratioP1;P1;durP2;ratioP2;P2;SDS_P1;SDS_P2;PMS_P1;PMS_P2;Temp;Humidity;BMP_temperature;BMP_pressure;BME280_temperature;BME280_humidity;BME280_pressure;Samples;Min_cycle;Max_cycle;Signal;HPM_P1;HPM_P2
2023/10/21 08:23:59;;;;;;;2.07;1.10;;;22.10;76.50;;;;;;5031750;28;20422;-84
2023/10/21 08:26:26;;;;;;;2.50;0.90;;;22.10;76.50;;;;;;5032652;28;20454;-84
2023/10/21 08:28:53;;;;;;;1.10;0.77;;;22.20;75.90;;;;;;5033118;28;20443;-90
2023/10/21 10:51:17;;;;;;;1.97;0.70;;;24.00;73.70;;;;;;5016559;28;20888;-84
2023/10/21 10:53:46;;;;;;;1.00;0.70;;;24.00;74.10;;;;;;5014479;28;20441;-86
2023/10/21 10:56:18;;;;;;;0.97;0.63;;;24.00;74.10;;;;;;5014731;28;20491;-86
2023/10/21 10:58:46;;;;;;;1.40;0.90;;;24.00;73.90;;;;;;5014493;28;20490;-84
2023/10/21 11:01:18;;;;;;;1.47;0.73;;;24.00;74.20;;;;;;5013574;28;20443;-86
2023/10/21 11:03:55;;;;;;;1.20;0.80;;;24.00;74.20;;;;;;5014801;28;20450;-84
2023/10/21 11:06:26;;;;;;;2.73;1.23;;;24.00;74.20;;;;;;5014614;28;20454;-84
2023/10/21 11:08:56;;;;;;;1.30;0.87;;;24.00;75.00;;;;;;5014386;28;21009;-85
2023/10/21 11:11:23;;;;;;;1.47;0.90;;;24.00;74.10;;;;;;5014045;28;20447;-84
2023/10/21 11:13:50;;;;;;;1.17;1.00;;;24.10;74.20;;;;;;5014040;28;20457;-84
2023/10/21 11:16:18;;;;;;;1.73;1.13;;;24.00;74.20;;;;;;5013887;28;20912;-85
2023/10/21 11:18:45;;;;;;;1.80;0.90;;;24.00;74.20;;;;;;5014414;28;20471;-85
2023/10/21 11:21:12;;;;;;;1.70;1.00;;;24.00;73.70;;;;;;5013475;28;20446;-88
2023/10/21 11:23:40;;;;;;;1.10;0.70;;;24.00;73.70;;;;;;5013573;28;20447;-85
2023/10/21 11:26:08;;;;;;;4.40;0.70;;;23.90;73.80;;;;;;5013636;28;20463;-85
2023/10/21 11:28:38;;;;;;;1.10;0.70;;;23.80;73.80;;;;;;5013989;28;20442;-85
2023/10/21 11:31:05;;;;;;;2.17;0.93;;;23.90;73.90;;;;;;5013794;28;20435;-85
2023/10/21 11:33:32;;;;;;;1.10;0.70;;;23.80;74.10;;;;;;5013369;28;20443;-86
2023/10/21 11:36:00;;;;;;;1.63;0.77;;;23.80;73.90;;;;;;5013603;28;20475;-86
2023/10/21 11:38:28;;;;;;;1.33;0.80;;;23.80;74.10;;;;;;5013050;28;20534;-86
2023/10/21 11:40:58;;;;;;;1.70;0.93;;;23.80;74.00;;;;;;5013780;28;20458;-84
2023/10/21 11:43:27;;;;;;;1.50;0.77;;;23.80;74.70;;;;;;5014006;28;20486;-89
2023/10/21 11:45:55;;;;;;;1.10;0.80;;;23.80;74.90;;;;;;5013917;28;20928;-85
2023/10/21 11:48:24;;;;;;;1.90;0.80;;;23.80;75.10;;;;;;5013708;28;20953;-89
2023/10/21 11:50:51;;;;;;;1.83;1.07;;;23.80;75.10;;;;;;5027471;28;20470;-85
2023/10/21 11:53:19;;;;;;;1.40;1.17;;;23.80;74.90;;;;;;5033151;28;20481;-84
2023/10/21 12:15:49;;;;;;;2.60;1.40;;;23.80;74.90;;;;;;5037668;28;20811;-84
2023/10/21 12:24:28;;;;;;;4.13;1.60;;;23.90;74.90;;;;;;5003961;28;20950;-85
2023/10/21 12:27:26;;;;;;;3.97;1.53;;;23.90;74.90;;;;;;5036851;28;20925;-85
2023/10/21 12:32:44;;;;;;;2.10;1.10;;;23.80;75.40;;;;;;5030073;28;20573;-86
2023/10/21 12:35:37;;;;;;;4.50;1.73;;;23.90;75.70;;;;;;5034871;28;21012;-94
2023/10/21 12:38:23;;;;;;;3.27;1.47;;;23.90;75.60;;;;;;5031794;28;20457;-90
2023/10/21 12:43:35;;;;;;;5.10;1.57;;;23.90;75.70;;;;;;5036881;28;20501;-87
2023/10/21 12:46:14;;;;;;;2.03;1.53;;;24.00;75.80;;;;;;5036629;28;20457;-88
2023/10/21 12:48:43;;;;;;;7.07;1.50;;;24.00;75.80;;;;;;5036624;28;20442;-94
2023/10/21 12:51:14;;;;;;;3.30;1.47;;;24.00;75.80;;;;;;5019705;28;20906;-86
2023/10/21 12:53:41;;;;;;;7.23;1.27;;;24.00;75.80;;;;;;5016343;28;20530;-94
2023/10/21 12:56:09;;;;;;;3.13;1.20;;;23.90;75.70;;;;;;5016354;28;20829;-87
2023/10/21 12:58:36;;;;;;;7.47;1.30;;;24.00;75.60;;;;;;5016086;28;20446;-88
2023/10/21 13:01:04;;;;;;;4.10;1.13;;;24.00;74.20;;;;;;5015968;28;20435;-88
2023/10/21 13:03:31;;;;;;;3.00;1.13;;;23.90;73.50;;;;;;5016210;28;20453;-87
2023/10/21 13:06:00;;;;;;;1.57;0.90;;;23.80;73.50;;;;;;5016217;28;20443;-87
2023/10/21 13:08:26;;;;;;;2.80;1.00;;;23.80;73.80;;;;;;5016859;28;20435;-87
2023/10/21 13:10:55;;;;;;;3.03;0.90;;;23.70;73.80;;;;;;5016219;28;20465;-87
2023/10/21 13:13:23;;;;;;;2.77;1.13;;;23.70;74.00;;;;;;5015987;28;20457;-87
2023/10/21 13:15:49;;;;;;;2.27;1.20;;;23.70;74.20;;;;;;5015919;28;20449;-87
2023/10/21 13:18:18;;;;;;;1.73;1.00;;;23.70;74.20;;;;;;5015704;28;20451;-87
2023/10/21 13:20:46;;;;;;;8.40;1.20;;;23.60;74.30;;;;;;5016107;28;20466;-87
2023/10/21 13:23:14;;;;;;;2.40;1.50;;;23.60;74.50;;;;;;5014747;28;20474;-87
2023/10/21 13:25:41;;;;;;;3.03;1.10;;;23.60;74.40;;;;;;5016281;28;20465;-89
2023/10/21 13:28:08;;;;;;;2.00;1.10;;;23.60;74.40;;;;;;5016324;28;20450;-87
2023/10/21 13:30:35;;;;;;;2.20;1.20;;;23.50;74.40;;;;;;5014851;28;20461;-87
2023/10/21 13:33:03;;;;;;;3.40;1.10;;;23.50;74.20;;;;;;5015900;28;20446;-87
2023/10/21 13:35:31;;;;;;;2.23;1.10;;;23.50;74.50;;;;;;5015797;28;21080;-87
2023/10/21 13:38:01;;;;;;;2.10;1.03;;;23.50;74.30;;;;;;5015936;28;20489;-87
2023/10/21 13:40:30;;;;;;;1.37;1.00;;;23.50;74.50;;;;;;5016056;28;20550;-86
2023/10/21 13:42:57;;;;;;;2.90;1.23;;;23.50;74.40;;;;;;5015082;28;20451;-92
2023/10/21 13:45:26;;;;;;;1.80;1.53;;;23.40;74.30;;;;;;5015067;28;20475;-86
2023/10/21 13:47:56;;;;;;;4.73;1.40;;;23.40;74.20;;;;;;5015854;28;20435;-90
2023/10/21 13:50:24;;;;;;;1.50;1.17;;;23.40;74.40;;;;;;5015932;28;20465;-92
2023/10/21 13:52:51;;;;;;;4.03;1.17;;;23.40;74.30;;;;;;5014923;28;20443;-91
2023/10/21 13:55:19;;;;;;;3.50;1.60;;;23.40;74.20;;;;;;5014907;28;20489;-87
2023/10/21 13:57:48;;;;;;;5.37;2.20;;;23.40;74.30;;;;;;5014754;28;20491;-87
2023/10/21 14:00:34;;;;;;;2.10;1.60;;;23.40;75.70;;;;;;5014690;28;20447;-90
2023/10/21 14:03:08;;;;;;;4.50;1.60;;;23.40;75.90;;;;;;5014753;28;20450;-87
2023/10/21 14:05:36;;;;;;;3.83;1.90;;;23.40;76.00;;;;;;5014574;28;20446;-85
2023/10/21 14:08:04;;;;;;;3.53;1.80;;;23.40;75.90;;;;;;5014612;28;20447;-88
2023/10/21 14:10:36;;;;;;;3.10;1.70;;;23.40;75.00;;;;;;4996603;28;20456;-87
2023/10/21 14:13:05;;;;;;;1.50;1.27;;;23.40;75.10;;;;;;5012888;28;20457;-87
2023/10/21 14:15:33;;;;;;;7.13;1.40;;;23.40;75.00;;;;;;5015028;28;20447;-89
2023/10/21 14:18:00;;;;;;;2.97;2.23;;;23.40;74.80;;;;;;5015244;28;20498;-87
2023/10/21 14:20:27;;;;;;;3.60;1.50;;;23.40;74.90;;;;;;5015243;28;21008;-87
2023/10/21 14:22:53;;;;;;;4.43;2.00;;;23.40;74.90;;;;;;5014702;28;20443;-86
2023/10/21 14:25:20;;;;;;;4.30;2.00;;;23.40;74.90;;;;;;5015016;28;20455;-87
2023/10/21 14:27:47;;;;;;;2.00;1.57;;;23.40;74.80;;;;;;5014794;28;20953;-89
2023/10/21 14:30:15;;;;;;;4.70;1.93;;;23.40;74.80;;;;;;5014590;28;20431;-87
2023/10/21 14:32:42;;;;;;;5.00;2.30;;;23.40;74.80;;;;;;5014358;28;20431;-86
2023/10/21 14:35:09;;;;;;;7.03;2.30;;;23.50;74.90;;;;;;5014274;28;20938;-92
2023/10/21 14:37:36;;;;;;;3.03;1.67;;;23.50;74.80;;;;;;5013998;28;20483;-86
2023/10/21 14:40:06;;;;;;;2.17;1.73;;;23.50;74.80;;;;;;5014048;28;20435;-86
2023/10/21 14:42:34;;;;;;;2.33;1.67;;;23.50;74.80;;;;;;5014216;28;20439;-87
2023/10/21 14:45:01;;;;;;;2.60;1.77;;;23.50;74.70;;;;;;5007725;28;20455;-90
2023/10/21 14:47:33;;;;;;;3.03;1.70;;;23.50;74.80;;;;;;4995006;28;20466;-86
2023/10/21 14:50:00;;;;;;;4.60;1.90;;;23.40;75.60;;;;;;4994616;28;20476;-86
2023/10/21 14:52:27;;;;;;;3.60;1.80;;;23.40;74.70;;;;;;4994577;28;20439;-87
2023/10/21 14:54:55;;;;;;;2.50;1.40;;;23.40;74.70;;;;;;4994918;28;20806;-87
2023/10/21 14:57:23;;;;;;;1.87;1.63;;;23.40;74.70;;;;;;5008208;28;21014;-90
2023/10/21 14:59:50;;;;;;;2.23;1.60;;;23.40;74.60;;;;;;5013611;28;20447;-91
2023/10/21 15:02:18;;;;;;;2.30;2.10;;;23.40;74.60;;;;;;5010716;28;20467;-86
2023/10/21 15:04:48;;;;;;;3.97;1.60;;;23.40;74.70;;;;;;5014395;28;20447;-91
2023/10/21 15:07:15;;;;;;;2.73;2.27;;;23.40;74.70;;;;;;5013935;28;20475;-90
2023/10/21 15:09:42;;;;;;;2.53;2.33;;;23.40;74.60;;;;;;5014062;28;20930;-86
2023/10/21 15:12:09;;;;;;;2.33;1.70;;;23.40;74.60;;;;;;5013445;28;20509;-93
2023/10/21 15:14:36;;;;;;;4.03;1.97;;;23.40;74.70;;;;;;5014004;28;20446;-91
2023/10/21 15:17:04;;;;;;;3.33;2.13;;;23.40;74.60;;;;;;5013522;28;20471;-92
2023/10/21 15:19:30;;;;;;;2.37;1.80;;;23.40;74.70;;;;;;5013544;28;20458;-88
2023/10/21 15:21:59;;;;;;;1.80;1.70;;;23.40;74.60;;;;;;5013781;28;20447;-90
2023/10/21 15:24:25;;;;;;;3.23;1.93;;;23.40;74.60;;;;;;5013872;28;20463;-87
2023/10/21 15:26:52;;;;;;;1.93;1.70;;;23.40;74.60;;;;;;5013796;28;20542;-92
2023/10/21 15:29:19;;;;;;;2.90;1.77;;;23.40;74.60;;;;;;5013328;28;20451;-90
2023/10/21 15:31:47;;;;;;;2.23;1.50;;;23.40;75.40;;;;;;5013116;28;20451;-87
2023/10/21 15:34:14;;;;;;;2.90;2.10;;;23.30;74.40;;;;;;5013508;28;20487;-91
2023/10/21 15:36:41;;;;;;;3.27;2.30;;;23.40;75.40;;;;;;5013377;28;20455;-87
2023/10/21 15:39:18;;;;;;;2.17;1.60;;;23.30;74.30;;;;;;5009703;28;20451;-86
2023/10/21 15:41:46;;;;;;;1.97;1.77;;;23.30;74.30;;;;;;5013461;28;20446;-87
2023/10/21 15:44:13;;;;;;;1.90;1.73;;;23.30;74.30;;;;;;5014113;28;20446;-86
2023/10/21 15:46:40;;;;;;;2.10;1.90;;;23.30;74.40;;;;;;5013055;28;20439;-87
2023/10/21 15:49:06;;;;;;;2.50;1.70;;;23.30;74.40;;;;;;5013731;28;20952;-88
2023/10/21 15:51:33;;;;;;;5.57;1.80;;;23.30;74.30;;;;;;5013750;28;20466;-88
2023/10/21 15:54:00;;;;;;;3.03;2.23;;;23.30;74.20;;;;;;5011800;28;20546;-88
2023/10/21 15:56:28;;;;;;;2.47;1.97;;;23.30;74.20;;;;;;5013408;28;20443;-86
2023/10/21 15:58:55;;;;;;;4.43;2.40;;;23.30;74.10;;;;;;4996958;28;20484;-93
2023/10/21 16:01:22;;;;;;;2.50;2.07;;;23.40;74.40;;;;;;5011014;28;20455;-87
2023/10/21 16:03:48;;;;;;;2.90;1.90;;;23.30;74.20;;;;;;5016796;28;20455;-93
2023/10/21 16:06:16;;;;;;;2.03;1.77;;;23.30;74.20;;;;;;5014854;28;20451;-87
2023/10/21 16:08:44;;;;;;;2.63;2.40;;;23.30;74.00;;;;;;5014516;28;20455;-88
2023/10/21 16:11:11;;;;;;;5.00;2.07;;;23.30;74.00;;;;;;5012979;28;20454;-88
2023/10/21 16:13:39;;;;;;;3.67;1.97;;;23.20;73.80;;;;;;5012933;28;20462;-87
2023/10/21 16:16:07;;;;;;;4.80;2.10;;;23.20;73.90;;;;;;5012650;28;20443;-86
2023/10/21 16:18:33;;;;;;;2.27;2.07;;;23.20;73.70;;;;;;5012941;28;20483;-89
2023/10/21 16:21:00;;;;;;;2.37;2.10;;;23.20;74.10;;;;;;5012548;28;20501;-87
2023/10/21 16:23:27;;;;;;;2.40;2.20;;;23.20;74.00;;;;;;5012690;28;20439;-89
2023/10/21 16:25:54;;;;;;;2.47;2.27;;;23.20;74.20;;;;;;5012716;28;20451;-87
2023/10/21 16:28:21;;;;;;;4.80;2.30;;;23.20;74.20;;;;;;5012523;28;20447;-86
2023/10/21 16:30:49;;;;;;;3.60;2.60;;;23.20;74.00;;;;;;5012411;28;20923;-86
2023/10/21 16:33:16;;;;;;;5.10;2.67;;;23.20;71.50;;;;;;5012546;28;20446;-87
2023/10/21 16:35:43;;;;;;;3.30;2.10;;;23.10;71.30;;;;;;5012454;28;20446;-86
2023/10/21 16:38:09;;;;;;;2.67;2.33;;;23.10;72.10;;;;;;5012474;28;20487;-86
2023/10/21 16:40:36;;;;;;;2.63;2.03;;;23.10;73.30;;;;;;5012350;28;20447;-86
2023/10/21 16:43:03;;;;;;;2.57;2.37;;;23.10;73.50;;;;;;5012505;28;20443;-89
2023/10/21 16:45:30;;;;;;;4.07;2.00;;;23.10;73.70;;;;;;5012846;28;20440;-88
2023/10/21 16:47:58;;;;;;;2.80;2.00;;;23.20;73.90;;;;;;5013140;28;20443;-86
2023/10/21 16:50:25;;;;;;;2.47;2.27;;;23.10;73.80;;;;;;5013008;28;20474;-85
2023/10/21 16:52:52;;;;;;;2.27;2.13;;;23.10;73.80;;;;;;5013125;28;20461;-86
2023/10/21 16:55:18;;;;;;;2.40;2.00;;;23.10;73.80;;;;;;5012844;28;20554;-91
2023/10/21 16:57:45;;;;;;;3.03;2.33;;;23.10;73.80;;;;;;5013330;28;20485;-86
2023/10/21 17:00:13;;;;;;;2.23;2.00;;;23.10;73.90;;;;;;5016620;28;20465;-85
2023/10/21 17:02:40;;;;;;;3.10;2.03;;;23.10;73.90;;;;;;5016227;28;20800;-86
2023/10/21 17:05:09;;;;;;;3.27;2.30;;;23.10;73.90;;;;;;5016703;28;20475;-91
2023/10/21 17:07:36;;;;;;;3.40;2.47;;;23.10;73.80;;;;;;5016694;28;20529;-85
2023/10/21 17:10:04;;;;;;;2.60;2.40;;;23.10;73.90;;;;;;5016405;28;20447;-87
2023/10/21 17:12:30;;;;;;;4.47;3.30;;;23.00;73.50;;;;;;5016628;28;20443;-87
2023/10/21 17:14:57;;;;;;;3.67;3.33;;;23.00;72.50;;;;;;5025056;28;20474;-86
2023/10/21 17:17:24;;;;;;;3.53;3.23;;;23.00;72.80;;;;;;5016020;28;20471;-87
2023/10/21 17:19:51;;;;;;;3.27;2.97;;;23.00;72.50;;;;;;5016398;28;20436;-87
2023/10/21 17:22:19;;;;;;;3.10;2.37;;;23.00;72.60;;;;;;5016136;28;20446;-86
2023/10/21 17:24:46;;;;;;;3.60;2.60;;;23.00;72.50;;;;;;5015765;28;20806;-86
2023/10/21 17:27:13;;;;;;;3.77;3.23;;;22.90;72.20;;;;;;5016163;28;20768;-86
2023/10/21 17:29:40;;;;;;;5.30;2.83;;;22.90;72.20;;;;;;5015225;28;20962;-86
2023/10/21 17:32:07;;;;;;;3.23;2.23;;;22.90;72.20;;;;;;5015162;28;20454;-87
2023/10/21 17:34:34;;;;;;;5.17;3.00;;;22.90;72.40;;;;;;5016136;28;20444;-89
2023/10/21 17:37:01;;;;;;;3.40;2.93;;;22.80;72.30;;;;;;5016286;28;20960;-90
2023/10/21 17:39:30;;;;;;;4.30;3.20;;;22.90;72.70;;;;;;4997158;28;20510;-92
2023/10/21 17:41:56;;;;;;;3.93;3.43;;;22.90;73.10;;;;;;4996885;28;20802;-89
2023/10/21 17:44:23;;;;;;;4.03;3.33;;;22.90;73.70;;;;;;5009539;28;20478;-95
2023/10/21 17:46:50;;;;;;;12.30;4.00;;;22.90;73.70;;;;;;4998193;28;20448;-95
2023/10/21 17:49:17;;;;;;;5.37;2.93;;;22.90;73.70;;;;;;4999333;28;20440;-96
2023/10/21 17:51:45;;;;;;;13.63;3.00;;;23.00;73.70;;;;;;5011684;28;20463;-93
2023/10/21 17:54:13;;;;;;;6.00;2.97;;;23.00;73.90;;;;;;5017042;28;20545;-95
2023/10/21 17:56:41;;;;;;;4.87;3.10;;;23.00;74.00;;;;;;5016239;28;20443;-96
2023/10/21 17:59:08;;;;;;;6.40;2.90;;;23.00;74.00;;;;;;4998231;28;20501;-90
2023/10/21 18:01:36;;;;;;;3.97;3.57;;;23.00;74.10;;;;;;4998745;28;20452;-95
2023/10/21 18:04:03;;;;;;;4.23;2.67;;;23.00;74.00;;;;;;5000027;28;20448;-96
2023/10/21 18:06:29;;;;;;;2.90;2.70;;;23.00;74.10;;;;;;4996711;28;20452;-86
2023/10/21 18:08:56;;;;;;;2.87;2.67;;;23.00;74.00;;;;;;4997522;28;20791;-89
2023/10/21 18:11:23;;;;;;;2.57;2.37;;;23.00;74.10;;;;;;5015527;28;20458;-95
2023/10/21 18:13:51;;;;;;;3.77;2.93;;;23.00;74.20;;;;;;5019001;28;20964;-96
2023/10/21 18:16:19;;;;;;;3.00;2.50;;;23.00;74.00;;;;;;5007564;28;20939;-96
2023/10/21 18:18:47;;;;;;;2.50;2.30;;;23.00;73.90;;;;;;4997538;28;20826;-89
2023/10/21 18:21:14;;;;;;;2.50;2.30;;;23.00;73.90;;;;;;4997900;28;20455;-96
2023/10/21 18:23:41;;;;;;;3.50;3.20;;;23.00;73.80;;;;;;4997761;28;20526;-95
2023/10/21 18:26:08;;;;;;;3.67;2.63;;;23.10;74.00;;;;;;4996416;28;20455;-91
2023/10/21 18:28:34;;;;;;;5.60;2.93;;;23.00;73.90;;;;;;4996492;28;20443;-86
2023/10/21 18:31:04;;;;;;;3.63;2.63;;;23.00;73.90;;;;;;5001128;28;20440;-86
2023/10/21 18:33:31;;;;;;;5.43;2.70;;;23.00;74.00;;;;;;5013988;28;20552;-86
2023/10/21 18:35:58;;;;;;;4.63;2.60;;;23.00;73.90;;;;;;5031048;23;20487;-86
2023/10/21 18:38:25;;;;;;;4.60;2.30;;;23.00;73.90;;;;;;5032610;28;20525;-89
2023/10/21 18:40:53;;;;;;;2.50;2.30;;;23.00;73.80;;;;;;5031831;28;20482;-86
2023/10/21 18:43:19;;;;;;;4.63;2.23;;;23.00;73.80;;;;;;5021713;28;20535;-88
2023/10/21 18:45:46;;;;;;;2.77;2.40;;;23.00;73.80;;;;;;5015236;28;20768;-93
2023/10/21 18:48:14;;;;;;;3.60;2.80;;;23.00;73.90;;;;;;5015277;28;20465;-88
2023/10/21 18:50:42;;;;;;;3.23;2.50;;;23.00;74.00;;;;;;5023299;28;20502;-85
2023/10/21 18:53:11;;;;;;;3.30;1.97;;;23.10;73.80;;;;;;5045769;23;20474;-85
2023/10/21 18:58:05;;;;;;;3.53;2.63;;;23.00;73.70;;;;;;5059046;22;20481;-86
2023/10/21 19:00:33;;;;;;;3.00;2.40;;;23.00;73.70;;;;;;5053139;28;20183;-85
2023/10/21 19:03:00;;;;;;;3.00;2.30;;;23.10;73.80;;;;;;5073666;28;20457;-86
2023/10/21 19:05:29;;;;;;;2.07;1.87;;;23.00;73.70;;;;;;5074424;28;20433;-86
2023/10/21 19:07:56;;;;;;;3.03;2.80;;;23.00;74.50;;;;;;5072296;28;20505;-87
2023/10/21 19:10:24;;;;;;;4.20;2.00;;;23.00;73.60;;;;;;5071974;28;20437;-88
2023/10/21 19:12:51;;;;;;;2.73;2.20;;;23.00;74.50;;;;;;5066500;28;20437;-92
2023/10/21 19:20:22;;;;;;;3.40;2.20;;;23.00;73.60;;;;;;5019487;28;20482;-96
2023/10/21 19:22:50;;;;;;;5.27;2.20;;;23.10;73.70;;;;;;5029187;28;20448;-95
2023/10/21 19:25:17;;;;;;;2.07;1.50;;;23.00;73.60;;;;;;5031506;28;20460;-92
2023/10/21 19:27:44;;;;;;;2.43;2.10;;;23.00;73.50;;;;;;5031420;28;20447;-96
2023/10/21 19:30:11;;;;;;;2.60;2.03;;;23.00;73.60;;;;;;5031395;28;20443;-96
2023/10/21 19:32:38;;;;;;;3.20;2.03;;;23.00;73.50;;;;;;5028635;28;20443;-96
2023/10/21 19:35:05;;;;;;;4.70;2.20;;;23.00;73.50;;;;;;5044732;23;20490;-92
2023/10/21 19:37:32;;;;;;;2.33;2.10;;;23.10;73.60;;;;;;4999419;28;20436;-88
2023/10/21 19:39:59;;;;;;;4.60;1.93;;;23.10;73.70;;;;;;5008780;28;20587;-87
2023/10/21 19:42:26;;;;;;;3.70;2.13;;;23.00;73.50;;;;;;5001458;28;20547;-96
2023/10/21 19:44:53;;;;;;;3.67;2.17;;;23.00;73.60;;;;;;4999953;28;20448;-94
2023/10/21 19:47:20;;;;;;;4.30;2.13;;;23.00;73.60;;;;;;4996913;28;20448;-95
2023/10/21 19:49:46;;;;;;;5.23;2.30;;;23.00;73.60;;;;;;4995863;28;20456;-96
2023/10/21 19:52:17;;;;;;;4.10;2.10;;;23.00;73.60;;;;;;4983633;28;20436;-89
2023/10/21 19:54:44;;;;;;;3.23;2.43;;;23.00;73.50;;;;;;4993246;28;20473;-96
2023/10/21 19:57:13;;;;;;;4.23;2.27;;;23.00;73.60;;;;;;5001448;28;20454;-94
2023/10/21 19:59:40;;;;;;;2.70;2.00;;;23.00;73.60;;;;;;5023674;28;20860;-90
2023/10/21 20:02:07;;;;;;;2.00;1.77;;;23.00;73.50;;;;;;5022706;28;20441;-90
2023/10/21 20:04:35;;;;;;;2.47;1.80;;;23.00;73.50;;;;;;5014442;28;20443;-86
2023/10/21 20:07:03;;;;;;;3.03;2.23;;;23.00;73.60;;;;;;5015296;28;20805;-96
2023/10/21 20:09:30;;;;;;;4.60;2.50;;;23.00;73.60;;;;;;5017219;28;20447;-96
2023/10/21 20:11:57;;;;;;;2.53;1.93;;;23.00;73.70;;;;;;5013570;28;20443;-95
2023/10/21 20:14:25;;;;;;;2.10;1.90;;;23.00;73.60;;;;;;5015727;28;20930;-93
2023/10/21 20:16:52;;;;;;;2.60;1.60;;;23.00;73.60;;;;;;5029639;28;20438;-89
2023/10/21 20:19:18;;;;;;;2.33;2.13;;;23.00;73.50;;;;;;5029146;28;20521;-94
2023/10/21 20:21:45;;;;;;;2.60;1.80;;;23.00;73.40;;;;;;5058360;23;20489;-94
2023/10/21 20:24:12;;;;;;;1.90;1.70;;;23.00;73.40;;;;;;5060017;28;20461;-96
2023/10/21 20:26:39;;;;;;;5.63;2.33;;;23.00;73.40;;;;;;5067372;28;20445;-90
2023/10/21 20:29:06;;;;;;;5.10;1.93;;;23.00;73.50;;;;;;5056468;28;20451;-95
2023/10/21 20:31:35;;;;;;;1.70;1.60;;;23.10;73.60;;;;;;5035329;28;20469;-92
2023/10/21 20:34:02;;;;;;;2.33;1.70;;;23.00;73.30;;;;;;5045369;28;20501;-96
2023/10/21 20:36:29;;;;;;;3.10;1.70;;;23.00;73.50;;;;;;5040246;28;20438;-87
2023/10/21 20:38:56;;;;;;;4.93;1.93;;;23.00;73.50;;;;;;5043748;28;20580;-92
2023/10/21 20:41:23;;;;;;;2.43;1.87;;;23.00;73.50;;;;;;5041172;28;20434;-95
2023/10/21 20:43:51;;;;;;;2.90;1.40;;;23.00;73.50;;;;;;5042483;28;20448;-90
2023/10/21 20:46:17;;;;;;;2.33;1.80;;;23.00;73.50;;;;;;5044082;28;20544;-94
2023/10/21 20:48:46;;;;;;;2.50;1.57;;;23.00;73.50;;;;;;5045206;28;20480;-94
2023/10/21 20:51:16;;;;;;;8.03;2.20;;;23.00;73.40;;;;;;5042343;28;20480;-90
2023/10/21 20:53:43;;;;;;;1.80;1.50;;;23.00;73.30;;;;;;5049297;28;20544;-95
2023/10/21 20:56:17;;;;;;;1.97;1.70;;;23.00;73.30;;;;;;5059369;28;20443;-92
2023/10/21 20:58:44;;;;;;;3.23;1.97;;;23.00;73.30;;;;;;5058942;28;20838;-95
2023/10/21 21:01:10;;;;;;;2.20;1.60;;;23.00;73.40;;;;;;5060956;28;20921;-93
2023/10/21 21:03:37;;;;;;;3.80;1.97;;;23.00;73.40;;;;;;5061640;28;20448;-89
2023/10/21 21:06:05;;;;;;;5.50;1.60;;;23.00;73.40;;;;;;5057290;28;20527;-93
2023/10/21 21:08:32;;;;;;;1.70;1.43;;;23.00;73.30;;;;;;5063002;28;20441;-89
2023/10/21 21:10:59;;;;;;;2.03;1.27;;;23.00;73.30;;;;;;5059970;28;20441;-91
2023/10/21 21:13:26;;;;;;;2.30;1.57;;;23.00;73.20;;;;;;5059193;28;20448;-96
2023/10/21 21:15:52;;;;;;;2.07;1.87;;;23.00;73.30;;;;;;5058487;28;20441;-86
2023/10/21 21:18:19;;;;;;;2.07;1.40;;;23.00;73.40;;;;;;5058507;28;20448;-87
2023/10/21 21:20:46;;;;;;;2.50;1.80;;;23.00;73.30;;;;;;5057145;28;20463;-95
2023/10/21 21:23:14;;;;;;;7.53;1.90;;;23.00;73.50;;;;;;5057153;28;20465;-96
2023/10/21 21:25:41;;;;;;;4.63;1.47;;;23.00;73.40;;;;;;5056831;28;20441;-96
2023/10/21 21:28:08;;;;;;;1.80;1.70;;;23.00;73.40;;;;;;5056594;28;20434;-86
2023/10/21 21:30:34;;;;;;;3.10;1.30;;;23.00;73.50;;;;;;5056607;28;20445;-90
2023/10/21 21:33:01;;;;;;;2.43;1.73;;;23.00;73.40;;;;;;5056367;28;20438;-93
2023/10/21 21:35:28;;;;;;;2.50;1.57;;;23.00;73.40;;;;;;5056464;28;20435;-94
2023/10/21 21:37:55;;;;;;;2.83;1.40;;;23.00;73.40;;;;;;5056112;28;20437;-85
2023/10/21 21:40:23;;;;;;;2.43;1.80;;;23.00;73.20;;;;;;5056472;28;20485;-87
2023/10/21 21:42:51;;;;;;;1.80;1.53;;;23.00;73.20;;;;;;5056371;28;20445;-90
2023/10/21 21:45:18;;;;;;;2.57;1.27;;;23.00;73.30;;;;;;5055407;28;20449;-94
2023/10/21 21:47:45;;;;;;;2.37;1.40;;;23.00;73.30;;;;;;5056415;28;20480;-92
2023/10/21 21:50:12;;;;;;;3.47;1.60;;;23.00;73.30;;;;;;5055956;28;20928;-88
2023/10/21 21:52:38;;;;;;;1.97;1.27;;;23.00;73.20;;;;;;5055738;28;20920;-91
2023/10/21 21:55:05;;;;;;;4.03;1.90;;;23.00;74.00;;;;;;5055637;28;20462;-85
2023/10/21 21:57:33;;;;;;;1.70;1.40;;;23.00;73.10;;;;;;5055861;28;20536;-86
2023/10/21 22:00:00;;;;;;;2.07;1.70;;;23.00;73.10;;;;;;5055873;28;20492;-92
2023/10/21 22:02:27;;;;;;;2.63;1.40;;;23.00;73.10;;;;;;5055844;28;20447;-85
2023/10/21 22:04:54;;;;;;;1.50;1.23;;;23.00;73.10;;;;;;5055704;28;20434;-94
2023/10/21 22:07:21;;;;;;;1.73;1.63;;;23.00;73.00;;;;;;5056518;28;20482;-90
2023/10/21 22:09:48;;;;;;;4.43;1.20;;;23.00;72.90;;;;;;5055528;28;20802;-86
2023/10/21 22:12:16;;;;;;;1.77;1.50;;;23.00;73.10;;;;;;5055458;28;20445;-85
2023/10/21 22:14:44;;;;;;;2.30;1.10;;;23.00;73.30;;;;;;5055243;28;20445;-85
2023/10/21 22:17:11;;;;;;;2.60;1.53;;;23.00;73.10;;;;;;5055297;28;20434;-85
2023/10/21 22:19:38;;;;;;;1.30;1.10;;;23.00;73.10;;;;;;5055164;28;20584;-85
2023/10/21 22:22:06;;;;;;;2.80;1.60;;;23.00;73.20;;;;;;5054964;28;20458;-86
2023/10/21 22:24:33;;;;;;;2.20;1.47;;;23.00;73.10;;;;;;5055218;28;20968;-88
2023/10/21 22:27:00;;;;;;;2.00;1.80;;;23.00;73.10;;;;;;5055301;28;20533;-91
2023/10/21 22:29:34;;;;;;;2.07;1.53;;;23.00;73.30;;;;;;5055319;28;20520;-85
2023/10/21 22:32:03;;;;;;;2.33;1.50;;;23.10;73.20;;;;;;5055079;28;20465;-85
2023/10/21 22:34:31;;;;;;;1.53;1.13;;;23.00;73.10;;;;;;5055520;28;20598;-96
2023/10/21 22:36:57;;;;;;;1.70;1.47;;;23.10;73.20;;;;;;5055033;28;20433;-95
2023/10/21 22:39:24;;;;;;;1.40;1.00;;;23.00;73.10;;;;;;5055121;28;20491;-84
2023/10/21 22:41:51;;;;;;;3.60;1.67;;;23.00;73.20;;;;;;5054915;28;20448;-84
2023/10/21 22:44:18;;;;;;;1.50;1.20;;;23.00;73.10;;;;;;5054806;28;20442;-84
2023/10/21 22:46:45;;;;;;;3.30;1.50;;;23.00;73.00;;;;;;5054969;28;20429;-94
2023/10/21 22:49:13;;;;;;;1.87;1.30;;;23.00;73.10;;;;;;5054588;28;20445;-84
2023/10/21 22:51:40;;;;;;;3.40;1.83;;;23.00;73.20;;;;;;5054876;28;20464;-84
2023/10/21 22:54:08;;;;;;;3.63;1.50;;;23.00;73.20;;;;;;5054431;28;20469;-93
2023/10/21 22:56:34;;;;;;;1.73;1.40;;;23.00;73.10;;;;;;5053383;28;20947;-94
2023/10/21 22:59:01;;;;;;;1.87;1.20;;;23.00;73.10;;;;;;5054471;28;20485;-83
2023/10/21 23:01:28;;;;;;;1.40;1.00;;;23.00;73.10;;;;;;5054539;28;20815;-83
2023/10/21 23:03:55;;;;;;;2.70;1.27;;;23.00;73.10;;;;;;5054570;28;20433;-84
2023/10/21 23:06:23;;;;;;;2.17;1.40;;;23.00;73.50;;;;;;5055109;28;20442;-84
2023/10/21 23:08:53;;;;;;;4.30;1.30;;;23.00;73.30;;;;;;5054360;28;20808;-94
2023/10/21 23:11:20;;;;;;;2.13;1.10;;;23.00;73.30;;;;;;5054851;28;20563;-84
2023/10/21 23:13:48;;;;;;;1.40;1.20;;;23.00;73.20;;;;;;5055190;28;20790;-94
2023/10/21 23:16:18;;;;;;;2.50;1.30;;;23.00;73.10;;;;;;5054424;28;20800;-92
2023/10/21 23:18:44;;;;;;;3.63;1.37;;;23.00;72.90;;;;;;5053823;28;20433;-84
2023/10/21 23:21:11;;;;;;;2.10;1.40;;;23.00;72.90;;;;;;5053973;28;20489;-90
2023/10/21 23:23:39;;;;;;;1.73;1.13;;;23.00;73.00;;;;;;5052964;28;20477;-84
2023/10/21 23:26:06;;;;;;;2.30;1.43;;;23.00;73.10;;;;;;5050011;28;20448;-94
2023/10/21 23:28:33;;;;;;;1.30;1.10;;;23.00;73.00;;;;;;5054563;28;20433;-84
2023/10/21 23:31:02;;;;;;;3.20;1.40;;;23.00;73.00;;;;;;5053623;28;20449;-89
2023/10/21 23:33:28;;;;;;;2.90;1.30;;;23.10;73.10;;;;;;5053819;28;20490;-95
2023/10/21 23:36:01;;;;;;;1.77;1.20;;;23.00;72.80;;;;;;5054112;28;20475;-83
2023/10/21 23:38:27;;;;;;;2.70;1.27;;;23.00;72.80;;;;;;5054055;28;20437;-92
2023/10/21 23:40:56;;;;;;;2.50;0.90;;;23.10;72.90;;;;;;5053687;28;20485;-83
2023/10/21 23:43:23;;;;;;;1.90;1.20;;;23.00;72.80;;;;;;5054298;28;20426;-94
2023/10/21 23:45:49;;;;;;;1.90;1.27;;;23.00;72.80;;;;;;5054206;28;20437;-84
2023/10/21 23:48:16;;;;;;;1.57;0.90;;;23.00;72.80;;;;;;5053717;28;20445;-84
2023/10/21 23:50:43;;;;;;;1.80;1.20;;;23.00;73.20;;;;;;5053728;28;20451;-84
2023/10/21 23:53:10;;;;;;;1.40;1.00;;;23.00;73.10;;;;;;5053489;28;20465;-93
2023/10/21 23:55:36;;;;;;;2.37;1.20;;;23.00;72.80;;;;;;5053373;28;20504;-93
2023/10/21 23:58:04;;;;;;;2.70;1.27;;;23.00;72.70;;;;;;5053414;28;20449;-84
